createdAt,value
2022-10-13T00:00:13.298Z,13.57
2022-10-13T00:02:40.024Z,13.59
2022-10-13T00:05:06.691Z,13.68
2022-10-13T00:07:33.367Z,13.62
2022-10-13T00:09:59.944Z,13.85
2022-10-13T00:12:26.608Z,13.86
2022-10-13T00:14:53.191Z,13.71
2022-10-13T00:17:19.812Z,13.66
2022-10-13T00:19:46.369Z,13.57
2022-10-13T00:22:13.127Z,13.71
2022-10-13T00:24:39.693Z,13.79
2022-10-13T00:27:06.287Z,13.71
2022-10-13T00:29:32.886Z,13.72
2022-10-13T00:31:59.754Z,13.56
2022-10-13T00:34:26.385Z,13.43
2022-10-13T00:36:52.952Z,13.15
2022-10-13T00:39:19.598Z,12.86
2022-10-13T00:41:46.255Z,13.19
2022-10-13T00:44:31.587Z,13.49
2022-10-13T00:46:58.166Z,13.31
2022-10-13T00:49:24.751Z,13.18
2022-10-13T00:51:51.525Z,13.31
2022-10-13T00:54:20.655Z,13.46
2022-10-13T00:56:47.614Z,13.45
2022-10-13T00:59:23.170Z,13.39
2022-10-13T01:01:51.096Z,13.38
2022-10-13T01:04:18.636Z,13.24
2022-10-13T01:06:45.784Z,13.14
2022-10-13T01:09:12.464Z,13.03
2022-10-13T01:12:02.418Z,13.01
2022-10-13T01:14:47.492Z,12.92
2022-10-13T01:17:32.641Z,13.18
2022-10-13T01:20:01.942Z,12.99
2022-10-13T01:22:34.484Z,12.76
2022-10-13T01:25:04.023Z,12.91
2022-10-13T01:27:49.560Z,12.81
2022-10-13T01:30:18.562Z,12.80
2022-10-13T01:32:45.161Z,12.62
2022-10-13T01:35:15.052Z,12.60
2022-10-13T01:37:48.680Z,12.67
2022-10-13T01:40:24.566Z,12.76
2022-10-13T01:43:01.321Z,12.58
2022-10-13T01:45:34.262Z,12.61
2022-10-13T01:48:02.355Z,12.52
2022-10-13T01:50:29.932Z,12.64
2022-10-13T01:52:59.847Z,12.76
2022-10-13T01:55:26.475Z,12.77
2022-10-13T01:57:53.100Z,12.71
2022-10-13T02:00:20.981Z,12.85
2022-10-13T02:02:57.080Z,12.90
2022-10-13T02:05:53.857Z,13.00
2022-10-13T02:08:30.429Z,12.82
2022-10-13T02:11:02.010Z,12.64
2022-10-13T02:13:30.035Z,12.61
2022-10-13T02:15:59.286Z,12.62
2022-10-13T02:18:31.331Z,12.62
2022-10-13T02:20:58.482Z,12.67
2022-10-13T02:23:25.387Z,12.44
2022-10-13T02:25:52.009Z,12.54
2022-10-13T02:28:19.161Z,12.41
2022-10-13T02:30:46.412Z,12.64
2022-10-13T02:33:13.972Z,12.23
2022-10-13T02:35:40.755Z,12.15
2022-10-13T02:38:07.380Z,12.11
2022-10-13T02:40:34.015Z,12.16
2022-10-13T02:43:00.642Z,12.12
2022-10-13T02:45:27.295Z,11.80
2022-10-13T02:47:54.377Z,11.94
2022-10-13T02:50:20.986Z,12.03
2022-10-13T02:52:47.609Z,12.06
2022-10-13T02:55:14.209Z,12.03
2022-10-13T02:57:40.924Z,12.03
2022-10-13T03:00:07.824Z,12.03
2022-10-13T03:02:34.406Z,11.79
2022-10-13T03:05:00.951Z,12.07
2022-10-13T03:07:27.553Z,12.13
2022-10-13T03:09:54.136Z,12.20
2022-10-13T03:12:21.207Z,12.04
2022-10-13T03:14:48.168Z,11.85
2022-10-13T03:17:14.864Z,11.89
2022-10-13T03:19:41.503Z,11.93
2022-10-13T03:22:08.094Z,12.01
2022-10-13T03:24:34.862Z,11.97
2022-10-13T03:27:01.421Z,11.98
2022-10-13T03:29:28.084Z,11.83
2022-10-13T03:31:54.690Z,11.72
2022-10-13T03:34:21.361Z,11.84
2022-10-13T03:36:48.168Z,11.70
2022-10-13T03:39:14.954Z,11.91
2022-10-13T03:41:41.848Z,11.97
2022-10-13T03:44:10.535Z,11.94
2022-10-13T03:46:37.320Z,11.92
2022-10-13T03:49:03.907Z,11.98
2022-10-13T03:51:30.591Z,11.99
2022-10-13T03:53:57.215Z,12.01
2022-10-13T03:56:25.769Z,12.04
2022-10-13T03:58:54.877Z,11.82
2022-10-13T04:01:23.345Z,11.79
2022-10-13T04:03:50.487Z,11.86
2022-10-13T04:06:17.212Z,12.02
2022-10-13T04:08:43.981Z,11.83
2022-10-13T04:11:13.183Z,11.79
2022-10-13T04:13:39.892Z,11.74
2022-10-13T04:16:07.821Z,11.61
2022-10-13T04:18:34.674Z,11.56
2022-10-13T04:21:01.397Z,11.64
2022-10-13T04:23:28.029Z,11.63
2022-10-13T04:25:54.723Z,11.72
2022-10-13T04:28:21.392Z,11.69
2022-10-13T04:30:49.522Z,11.70
2022-10-13T04:33:16.335Z,11.56
2022-10-13T04:35:42.912Z,11.68
2022-10-13T04:38:09.585Z,11.51
2022-10-13T04:40:36.184Z,11.51
2022-10-13T04:43:02.885Z,11.62
2022-10-13T04:45:29.486Z,11.57
2022-10-13T04:47:56.060Z,11.46
2022-10-13T04:50:22.718Z,11.48
2022-10-13T04:52:49.344Z,11.45
2022-10-13T04:55:15.942Z,11.46
2022-10-13T04:57:42.587Z,11.48
2022-10-13T05:00:09.853Z,11.54
2022-10-13T05:02:36.611Z,11.42
2022-10-13T05:05:03.795Z,11.43
2022-10-13T05:07:30.952Z,11.37
2022-10-13T05:09:57.898Z,11.43
2022-10-13T05:12:24.730Z,11.40
2022-10-13T05:14:51.350Z,11.47
2022-10-13T05:17:17.989Z,11.53
2022-10-13T05:19:44.807Z,11.52
2022-10-13T05:22:11.527Z,11.38
2022-10-13T05:24:38.806Z,11.34
2022-10-13T05:27:12.469Z,11.49
2022-10-13T05:29:39.468Z,11.24
2022-10-13T05:32:06.537Z,10.93
2022-10-13T05:34:33.410Z,10.88
2022-10-13T05:37:00.558Z,11.16
2022-10-13T05:39:27.426Z,11.54
2022-10-13T05:41:54.319Z,12.09
2022-10-13T05:44:21.521Z,12.25
2022-10-13T05:46:48.118Z,12.72
2022-10-13T05:49:14.746Z,13.08
2022-10-13T05:51:43.645Z,13.26
2022-10-13T05:54:16.181Z,13.53
2022-10-13T05:56:46.193Z,13.95
2022-10-13T05:59:14.256Z,14.10
2022-10-13T06:01:42.525Z,14.44
2022-10-13T06:04:16.270Z,14.75
2022-10-13T06:06:42.940Z,15.20
2022-10-13T06:09:10.717Z,15.47
2022-10-13T06:11:37.754Z,15.80
2022-10-13T06:14:04.576Z,16.15
2022-10-13T06:16:32.031Z,16.39
2022-10-13T06:18:58.673Z,16.34
2022-10-13T06:21:25.226Z,16.50
2022-10-13T06:23:51.867Z,16.68
2022-10-13T06:26:18.557Z,17.03
2022-10-13T06:28:49.724Z,17.35
2022-10-13T06:31:17.110Z,17.58
2022-10-13T06:33:45.067Z,17.87
2022-10-13T06:36:11.826Z,17.99
2022-10-13T06:38:38.445Z,18.40
2022-10-13T06:41:05.947Z,18.97
2022-10-13T06:43:39.840Z,19.05
2022-10-13T06:46:07.191Z,19.14
2022-10-13T06:48:34.371Z,19.34
2022-10-13T06:51:02.447Z,19.47
2022-10-13T06:53:29.158Z,19.76
2022-10-13T06:55:59.764Z,19.83
2022-10-13T06:58:26.848Z,19.94
2022-10-13T07:00:54.054Z,19.76
2022-10-13T07:03:21.088Z,19.90
2022-10-13T07:05:47.701Z,20.09
2022-10-13T07:08:14.577Z,20.24
2022-10-13T07:10:41.240Z,20.54
2022-10-13T07:13:08.011Z,20.59
2022-10-13T07:15:37.185Z,20.81
2022-10-13T07:18:03.876Z,21.33
2022-10-13T07:20:30.416Z,21.90
2022-10-13T07:22:57.086Z,22.23
2022-10-13T07:25:26.861Z,22.76
2022-10-13T07:27:53.656Z,22.92
2022-10-13T07:30:20.409Z,22.85
2022-10-13T07:32:47.149Z,22.97
2022-10-13T07:35:14.060Z,23.11
2022-10-13T07:37:40.812Z,23.11
2022-10-13T07:40:08.117Z,22.98
2022-10-13T07:42:34.783Z,22.49
2022-10-13T07:45:01.382Z,20.07
2022-10-13T07:47:28.729Z,19.46
2022-10-13T07:49:55.924Z,18.63
2022-10-13T07:52:22.732Z,18.90
2022-10-13T07:54:50.204Z,19.32
2022-10-13T07:57:17.018Z,19.40
2022-10-13T07:59:43.736Z,18.46
2022-10-13T08:02:10.379Z,18.83
2022-10-13T08:04:37.400Z,18.80
2022-10-13T08:07:04.467Z,19.25
2022-10-13T08:09:31.278Z,18.26
2022-10-13T08:12:00.898Z,18.12
2022-10-13T08:14:29.200Z,18.37
2022-10-13T08:16:56.307Z,17.83
2022-10-13T08:19:23.478Z,17.56
2022-10-13T08:21:58.141Z,17.85
2022-10-13T08:24:26.594Z,18.44
2022-10-13T08:26:53.785Z,18.32
2022-10-13T08:29:23.923Z,19.02
2022-10-13T08:31:53.835Z,19.46
2022-10-13T08:34:21.798Z,19.18
2022-10-13T08:36:53.818Z,19.75
2022-10-13T08:39:23.490Z,19.68
2022-10-13T08:41:53.001Z,19.10
2022-10-13T08:45:02.749Z,19.68
2022-10-13T08:47:21.913Z,19.88
2022-10-13T08:49:48.881Z,19.57
2022-10-13T08:52:26.251Z,19.46
2022-10-13T08:54:54.373Z,20.37
2022-10-13T08:57:21.686Z,21.70
2022-10-13T08:59:49.140Z,20.78
2022-10-13T09:02:22.756Z,20.89
2022-10-13T09:04:51.488Z,20.86
2022-10-13T09:07:20.776Z,20.23
2022-10-13T09:09:50.792Z,20.57
2022-10-13T09:12:22.195Z,20.53
2022-10-13T09:15:01.650Z,20.25
2022-10-13T09:17:29.385Z,20.42
2022-10-13T09:20:01.452Z,20.58
2022-10-13T09:22:31.018Z,20.33
2022-10-13T09:25:07.545Z,20.63
2022-10-13T09:27:45.822Z,21.00
2022-10-13T09:30:35.618Z,21.67
2022-10-13T09:33:15.775Z,20.86
2022-10-13T09:35:42.609Z,22.08
2022-10-13T09:38:20.191Z,21.81
2022-10-13T09:41:07.631Z,21.95
2022-10-13T09:43:39.478Z,22.64
2022-10-13T09:46:27.682Z,22.78
2022-10-13T09:48:59.045Z,22.93
2022-10-13T09:51:36.048Z,22.54
2022-10-13T09:54:05.411Z,22.01
2022-10-13T09:56:40.249Z,22.68
2022-10-13T09:59:13.935Z,23.15
2022-10-13T10:01:45.087Z,23.43
2022-10-13T10:04:16.776Z,24.05
2022-10-13T10:06:47.899Z,23.74
2022-10-13T10:09:50.554Z,24.03
2022-10-13T10:12:21.893Z,22.75
2022-10-13T10:14:50.818Z,22.33
2022-10-13T10:17:20.974Z,23.22
2022-10-13T10:19:54.658Z,22.33
2022-10-13T10:22:44.616Z,21.08
2022-10-13T10:25:30.266Z,22.19
2022-10-13T10:28:05.855Z,22.59
2022-10-13T10:30:35.630Z,23.58
2022-10-13T10:33:06.196Z,24.12
2022-10-13T10:36:17.080Z,23.70
2022-10-13T10:38:43.717Z,23.14
2022-10-13T10:41:28.664Z,22.38
2022-10-13T10:44:00.812Z,21.98
2022-10-13T10:46:35.759Z,22.33
2022-10-13T10:49:04.601Z,22.31
2022-10-13T10:51:36.884Z,22.69
2022-10-13T10:54:06.698Z,22.95
2022-10-13T10:56:36.283Z,22.50
2022-10-13T10:59:08.811Z,22.71
2022-10-13T11:01:41.670Z,22.52
2022-10-13T11:04:31.094Z,22.11
2022-10-13T11:06:57.996Z,22.38
2022-10-13T11:09:42.907Z,22.24
2022-10-13T11:12:22.170Z,23.34
2022-10-13T11:14:55.305Z,23.35
2022-10-13T11:17:29.135Z,22.86
2022-10-13T11:19:56.401Z,22.87
2022-10-13T11:22:24.728Z,23.79
2022-10-13T11:24:54.305Z,23.82
2022-10-13T11:27:27.217Z,24.06
2022-10-13T11:29:56.061Z,24.04
2022-10-13T11:32:26.396Z,23.55
2022-10-13T11:34:59.267Z,22.82
2022-10-13T11:37:55.671Z,23.60
2022-10-13T11:40:35.530Z,23.12
2022-10-13T11:43:08.472Z,23.12
2022-10-13T11:45:53.932Z,22.51
2022-10-13T11:48:26.612Z,22.79
2022-10-13T11:50:56.257Z,23.66
2022-10-13T11:53:35.494Z,23.15
2022-10-13T11:56:02.407Z,23.31
2022-10-13T11:58:33.074Z,22.98
2022-10-13T12:01:06.643Z,23.01
2022-10-13T12:03:37.929Z,22.40
2022-10-13T12:06:23.868Z,22.18
2022-10-13T12:08:51.663Z,22.87
2022-10-13T12:11:26.143Z,22.95
2022-10-13T12:13:53.118Z,23.09
2022-10-13T12:16:20.344Z,23.44
2022-10-13T12:18:47.087Z,23.43
2022-10-13T12:21:23.299Z,24.10
2022-10-13T12:23:51.202Z,23.56
2022-10-13T12:26:23.086Z,23.62
2022-10-13T12:28:57.890Z,23.13
2022-10-13T12:31:29.950Z,23.58
2022-10-13T12:33:57.721Z,22.81
2022-10-13T12:36:30.422Z,22.41
2022-10-13T12:38:59.875Z,22.56
2022-10-13T12:41:29.342Z,22.87
2022-10-13T12:43:56.071Z,23.00
2022-10-13T12:46:41.110Z,22.91
2022-10-13T12:49:08.416Z,22.12
2022-10-13T12:51:37.070Z,22.58
2022-10-13T12:54:17.714Z,23.33
2022-10-13T12:56:44.439Z,22.80
2022-10-13T12:59:18.325Z,23.26
2022-10-13T13:01:46.099Z,23.87
2022-10-13T13:04:18.841Z,23.36
2022-10-13T13:07:01.733Z,23.43
2022-10-13T13:09:39.330Z,23.84
2022-10-13T13:12:08.812Z,24.19
2022-10-13T13:14:37.524Z,23.70
2022-10-13T13:17:06.332Z,23.29
2022-10-13T13:19:34.610Z,23.48
2022-10-13T13:22:01.281Z,24.21
2022-10-13T13:24:39.471Z,24.65
2022-10-13T13:27:17.687Z,24.73
2022-10-13T13:29:44.950Z,25.52
2022-10-13T13:32:16.852Z,25.75
2022-10-13T13:34:47.141Z,25.49
2022-10-13T13:37:34.128Z,24.40
2022-10-13T13:40:01.299Z,24.08
2022-10-13T13:42:28.956Z,24.45
2022-10-13T13:44:56.096Z,24.50
2022-10-13T13:47:23.721Z,24.70
2022-10-13T13:49:51.214Z,23.97
2022-10-13T13:52:18.864Z,24.35
2022-10-13T13:54:45.675Z,24.66
2022-10-13T13:57:13.731Z,25.32
2022-10-13T13:59:41.280Z,25.73
2022-10-13T14:02:12.458Z,25.85
2022-10-13T14:04:39.387Z,26.03
2022-10-13T14:07:06.571Z,26.22
2022-10-13T14:09:33.722Z,26.45
2022-10-13T14:12:00.481Z,26.60
2022-10-13T14:14:27.130Z,26.84
2022-10-13T14:16:53.886Z,26.77
2022-10-13T14:19:20.552Z,26.60
2022-10-13T14:21:47.323Z,26.67
2022-10-13T14:24:14.172Z,26.42
2022-10-13T14:26:41.446Z,26.63
2022-10-13T14:29:08.610Z,26.72
2022-10-13T14:31:35.502Z,26.85
2022-10-13T14:34:02.976Z,26.76
2022-10-13T14:36:29.530Z,26.49
2022-10-13T14:38:56.277Z,26.84
2022-10-13T14:41:23.070Z,26.52
2022-10-13T14:43:56.669Z,26.45
2022-10-13T14:46:24.307Z,26.62
2022-10-13T14:48:51.051Z,25.99
2022-10-13T14:51:17.923Z,26.24
2022-10-13T14:53:45.439Z,26.12
2022-10-13T14:56:19.973Z,26.16
2022-10-13T14:58:47.772Z,25.93
2022-10-13T15:01:14.684Z,25.79
2022-10-13T15:03:41.398Z,26.07
2022-10-13T15:06:10.652Z,25.90
2022-10-13T15:08:37.322Z,25.86
2022-10-13T15:11:04.250Z,25.45
2022-10-13T15:13:30.949Z,25.51
2022-10-13T15:16:01.133Z,25.37
2022-10-13T15:18:29.393Z,25.51
2022-10-13T15:20:56.749Z,25.41
2022-10-13T15:23:23.483Z,25.28
2022-10-13T15:25:51.335Z,25.19
2022-10-13T15:28:18.701Z,24.94
2022-10-13T15:30:45.572Z,24.67
2022-10-13T15:33:12.128Z,24.62
2022-10-13T15:35:38.816Z,24.39
2022-10-13T15:38:05.492Z,23.89
2022-10-13T15:40:36.350Z,23.95
2022-10-13T15:43:03.973Z,23.96
2022-10-13T15:45:30.904Z,23.58
2022-10-13T15:47:57.898Z,23.69
2022-10-13T15:50:24.770Z,23.72
2022-10-13T15:52:52.466Z,23.55
2022-10-13T15:55:19.344Z,23.31
2022-10-13T15:57:46.163Z,23.38
2022-10-13T16:00:13.981Z,23.38
2022-10-13T16:02:41.471Z,23.26
2022-10-13T16:05:08.989Z,23.26
2022-10-13T16:07:36.238Z,23.11
2022-10-13T16:10:03.179Z,22.95
2022-10-13T16:12:30.019Z,22.59
2022-10-13T16:14:57.027Z,22.40
2022-10-13T16:17:23.752Z,22.48
2022-10-13T16:19:50.504Z,22.42
2022-10-13T16:22:17.283Z,22.33
2022-10-13T16:24:43.888Z,22.13
2022-10-13T16:27:10.824Z,22.10
2022-10-13T16:29:37.788Z,21.94
2022-10-13T16:32:04.883Z,21.46
2022-10-13T16:34:31.525Z,21.49
2022-10-13T16:36:58.283Z,21.47
2022-10-13T16:39:25.354Z,21.42
2022-10-13T16:41:52.013Z,21.27
2022-10-13T16:44:18.643Z,21.26
2022-10-13T16:46:45.701Z,21.24
2022-10-13T16:49:13.050Z,21.19
2022-10-13T16:51:39.751Z,21.00
2022-10-13T16:54:06.455Z,20.60
2022-10-13T16:56:33.143Z,20.37
2022-10-13T16:59:01.067Z,20.19
2022-10-13T17:01:28.510Z,20.20
2022-10-13T17:03:55.320Z,20.08
2022-10-13T17:06:23.386Z,20.11
2022-10-13T17:08:50.265Z,20.11
2022-10-13T17:11:18.959Z,19.87
2022-10-13T17:13:45.587Z,19.85
2022-10-13T17:16:12.213Z,19.96
2022-10-13T17:18:38.864Z,20.00
2022-10-13T17:21:08.901Z,19.92
2022-10-13T17:23:35.980Z,19.95
2022-10-13T17:26:04.274Z,19.82
2022-10-13T17:28:30.887Z,19.75
2022-10-13T17:30:59.164Z,19.78
2022-10-13T17:33:29.836Z,19.56
2022-10-13T17:36:00.552Z,19.50
2022-10-13T17:38:27.244Z,19.40
2022-10-13T17:40:58.756Z,19.17
2022-10-13T17:43:26.448Z,18.89
2022-10-13T17:45:53.193Z,18.71
2022-10-13T17:48:23.073Z,18.73
2022-10-13T17:50:50.027Z,18.74
2022-10-13T17:53:16.656Z,18.60
2022-10-13T17:55:43.439Z,18.61
2022-10-13T17:58:10.198Z,18.39
2022-10-13T18:01:00.750Z,18.31
2022-10-13T18:03:24.678Z,17.80
2022-10-13T18:05:52.348Z,17.59
2022-10-13T18:08:19.995Z,17.71
2022-10-13T18:11:07.022Z,17.79
2022-10-13T18:13:34.002Z,17.79
2022-10-13T18:16:07.408Z,17.82
2022-10-13T18:18:34.415Z,17.79
2022-10-13T18:21:02.479Z,17.78
2022-10-13T18:23:32.883Z,17.67
2022-10-13T18:26:00.542Z,17.67
2022-10-13T18:28:28.975Z,17.75
2022-10-13T18:30:55.633Z,17.79
2022-10-13T18:33:22.428Z,17.80
2022-10-13T18:35:49.245Z,17.73
2022-10-13T18:38:20.232Z,17.65
2022-10-13T18:40:46.872Z,17.73
2022-10-13T18:43:13.543Z,17.70
2022-10-13T18:45:40.337Z,17.64
2022-10-13T18:48:07.004Z,17.36
2022-10-13T18:50:37.219Z,17.33
2022-10-13T18:53:04.318Z,17.21
2022-10-13T18:55:31.124Z,17.19
2022-10-13T18:57:57.874Z,17.08
2022-10-13T19:00:24.525Z,16.76
2022-10-13T19:02:52.910Z,16.88
2022-10-13T19:05:19.590Z,16.30
2022-10-13T19:07:46.242Z,16.60
2022-10-13T19:10:13.093Z,16.59
2022-10-13T19:12:40.073Z,16.55
2022-10-13T19:15:06.969Z,16.56
2022-10-13T19:17:33.787Z,16.61
2022-10-13T19:20:00.394Z,16.78
2022-10-13T19:22:27.129Z,16.67
2022-10-13T19:24:53.954Z,16.57
2022-10-13T19:27:20.852Z,16.21
2022-10-13T19:29:51.509Z,16.28
2022-10-13T19:32:18.340Z,16.47
2022-10-13T19:34:45.114Z,16.32
2022-10-13T19:37:11.961Z,16.30
2022-10-13T19:39:38.669Z,16.18
2022-10-13T19:42:05.302Z,15.93
2022-10-13T19:44:31.962Z,16.03
2022-10-13T19:46:58.841Z,15.98
2022-10-13T19:49:26.608Z,16.12
2022-10-13T19:51:54.121Z,16.01
2022-10-13T19:54:20.951Z,16.03
2022-10-13T19:56:48.602Z,16.10
2022-10-13T19:59:15.799Z,15.99
2022-10-13T20:01:42.431Z,16.07
2022-10-13T20:04:09.193Z,16.04
2022-10-13T20:06:36.170Z,16.13
2022-10-13T20:09:02.910Z,16.02
2022-10-13T20:11:29.598Z,15.97
2022-10-13T20:13:56.302Z,15.96
2022-10-13T20:16:24.079Z,16.04
2022-10-13T20:18:54.920Z,15.97
2022-10-13T20:21:22.101Z,16.06
2022-10-13T20:23:49.173Z,15.52
2022-10-13T20:26:15.847Z,15.74
2022-10-13T20:28:43.505Z,15.65
2022-10-13T20:31:10.880Z,15.48
2022-10-13T20:33:37.590Z,15.53
2022-10-13T20:36:09.780Z,15.51
2022-10-13T20:38:36.412Z,15.42
2022-10-13T20:41:08.684Z,15.27
2022-10-13T20:43:35.722Z,15.04
2022-10-13T20:46:03.759Z,15.11
2022-10-13T20:48:45.565Z,14.77
2022-10-13T20:51:19.658Z,14.97
2022-10-13T20:53:47.144Z,15.22
2022-10-13T20:56:15.915Z,15.09
2022-10-13T20:58:42.998Z,14.96
2022-10-13T21:01:09.931Z,14.95
2022-10-13T21:03:38.607Z,14.92
2022-10-13T21:06:06.602Z,14.61
2022-10-13T21:08:33.580Z,14.76
2022-10-13T21:11:10.353Z,14.95
2022-10-13T21:13:37.824Z,15.11
2022-10-13T21:16:08.562Z,14.91
2022-10-13T21:18:35.591Z,14.96
2022-10-13T21:21:03.378Z,14.96
2022-10-13T21:23:30.054Z,14.41
2022-10-13T21:25:56.636Z,14.67
2022-10-13T21:28:23.264Z,14.57
2022-10-13T21:30:59.022Z,14.60
2022-10-13T21:33:25.773Z,14.79
2022-10-13T21:35:52.331Z,14.72
2022-10-13T21:38:19.093Z,14.49
2022-10-13T21:40:46.465Z,14.43
2022-10-13T21:43:15.050Z,14.50
2022-10-13T21:45:41.647Z,14.37
2022-10-13T21:48:08.182Z,14.04
2022-10-13T21:50:34.829Z,14.16
2022-10-13T21:53:01.405Z,14.36
2022-10-13T21:55:27.996Z,14.41
2022-10-13T21:57:54.564Z,14.52
2022-10-13T22:00:21.364Z,14.60
2022-10-13T22:02:48.004Z,14.21
2022-10-13T22:05:14.926Z,14.08
2022-10-13T22:07:41.589Z,14.08
2022-10-13T22:10:08.344Z,14.26
2022-10-13T22:12:34.929Z,14.16
2022-10-13T22:15:01.533Z,14.08
2022-10-13T22:17:28.214Z,14.01
2022-10-13T22:19:55.334Z,13.76
2022-10-13T22:22:22.004Z,13.94
2022-10-13T22:24:48.596Z,14.00
2022-10-13T22:27:15.191Z,14.08
2022-10-13T22:29:41.876Z,13.93
2022-10-13T22:32:08.463Z,13.88
2022-10-13T22:34:35.172Z,13.93
2022-10-13T22:37:01.793Z,13.81
2022-10-13T22:39:28.579Z,13.85
2022-10-13T22:41:55.149Z,13.61
2022-10-13T22:44:21.779Z,13.83
2022-10-13T22:46:48.389Z,13.77
2022-10-13T22:49:15.226Z,13.77
2022-10-13T22:51:41.858Z,13.60
2022-10-13T22:54:09.267Z,13.48
2022-10-13T22:56:35.880Z,13.54
2022-10-13T22:59:04.861Z,13.29
2022-10-13T23:01:31.595Z,13.55
2022-10-13T23:03:58.676Z,13.60
2022-10-13T23:06:29.785Z,13.57
2022-10-13T23:08:56.620Z,13.64
2022-10-13T23:11:23.664Z,13.56
2022-10-13T23:13:50.298Z,13.44
2022-10-13T23:16:19.096Z,13.53
2022-10-13T23:18:45.860Z,13.53
2022-10-13T23:21:13.807Z,13.47
2022-10-13T23:23:40.500Z,13.38
2022-10-13T23:26:08.464Z,13.30
2022-10-13T23:28:35.720Z,13.42
2022-10-13T23:31:03.356Z,13.16
2022-10-13T23:33:30.316Z,13.01
2022-10-13T23:35:57.900Z,13.34
2022-10-13T23:38:25.386Z,13.30
2022-10-13T23:40:52.227Z,13.02
2022-10-13T23:43:19.372Z,13.06
2022-10-13T23:45:45.976Z,13.30
2022-10-13T23:48:12.631Z,13.30
2022-10-13T23:50:39.189Z,13.23
2022-10-13T23:53:05.793Z,13.42
2022-10-13T23:55:32.463Z,12.87
2022-10-13T23:58:04.545Z,13.04
